createdAt,value
2018-02-13T00:00:16.289Z,6.30
2018-02-13T00:02:45.704Z,6.30
2018-02-13T00:05:14.639Z,6.30
2018-02-13T00:07:43.434Z,6.30
2018-02-13T00:10:12.319Z,6.20
2018-02-13T00:12:41.415Z,6.20
2018-02-13T00:15:10.101Z,6.10
2018-02-13T00:17:38.788Z,6.10
2018-02-13T00:20:08.042Z,6.10
2018-02-13T00:22:48.448Z,6.10
2018-02-13T00:25:18.094Z,6.10
2018-02-13T00:27:47.253Z,6.10
2018-02-13T00:30:16.186Z,6.10
2018-02-13T00:32:44.937Z,6.10
2018-02-13T00:35:13.771Z,6.10
2018-02-13T00:37:42.646Z,6.10
2018-02-13T00:40:12.983Z,6.00
2018-02-13T00:42:42.324Z,6.00
2018-02-13T00:45:11.849Z,6.00
2018-02-13T00:47:40.570Z,6.00
2018-02-13T00:50:09.737Z,6.10
2018-02-13T00:52:39.038Z,6.20
2018-02-13T00:57:38.044Z,6.30
2018-02-13T01:00:07.555Z,6.10
2018-02-13T01:02:37.195Z,6.10
2018-02-13T01:05:05.946Z,6.10
2018-02-13T01:07:34.786Z,6.10
2018-02-13T01:10:04.278Z,6.10
2018-02-13T01:12:33.025Z,6.10
2018-02-13T01:15:01.715Z,6.00
2018-02-13T01:17:30.605Z,6.10
2018-02-13T01:19:59.288Z,6.00
2018-02-13T01:22:29.205Z,6.10
2018-02-13T01:24:58.502Z,6.00
2018-02-13T01:27:28.213Z,5.90
2018-02-13T01:29:57.718Z,5.80
2018-02-13T01:34:57.286Z,5.70
2018-02-13T01:37:28.496Z,5.60
2018-02-13T01:39:57.797Z,5.70
2018-02-13T01:47:31.428Z,5.60
2018-02-13T01:50:00.316Z,5.70
2018-02-13T01:52:29.819Z,5.60
2018-02-13T01:54:58.712Z,5.60
2018-02-13T01:57:28.014Z,5.50
2018-02-13T02:02:27.024Z,5.40
2018-02-13T02:04:56.119Z,5.40
2018-02-13T02:07:24.951Z,5.40
2018-02-13T02:09:53.902Z,5.30
2018-02-13T02:12:22.543Z,5.30
2018-02-13T02:14:51.274Z,5.40
2018-02-13T02:17:19.896Z,5.50
2018-02-13T02:19:48.689Z,5.40
2018-02-13T02:22:18.088Z,5.40
2018-02-13T02:24:46.835Z,5.40
2018-02-13T02:27:16.549Z,5.30
2018-02-13T02:29:45.236Z,5.30
2018-02-13T02:32:13.924Z,5.20
2018-02-13T02:34:42.542Z,5.20
2018-02-13T02:37:12.118Z,5.10
2018-02-13T02:42:14.812Z,5.10
2018-02-13T02:44:44.254Z,5.10
2018-02-13T02:47:14.637Z,5.10
2018-02-13T02:49:43.941Z,5.10
2018-02-13T02:52:12.624Z,5.20
2018-02-13T02:54:42.128Z,5.10
2018-02-13T02:57:11.058Z,5.10
2018-02-13T02:59:41.345Z,5.10
2018-02-13T03:02:10.030Z,5.00
2018-02-13T03:04:39.536Z,5.00
2018-02-13T03:07:09.182Z,5.00
2018-02-13T03:09:37.931Z,5.00
2018-02-13T03:14:37.352Z,4.80
2018-02-13T03:17:06.043Z,4.80
2018-02-13T03:19:34.929Z,4.80
2018-02-13T03:22:03.615Z,4.90
2018-02-13T03:24:32.716Z,4.90
2018-02-13T03:27:01.396Z,4.80
2018-02-13T03:29:30.435Z,4.80
2018-02-13T03:31:59.181Z,4.70
2018-02-13T03:34:27.864Z,4.80
2018-02-13T03:36:56.554Z,4.80
2018-02-13T03:39:26.199Z,4.80
2018-02-13T03:44:25.068Z,4.60
2018-02-13T03:46:54.162Z,4.70
2018-02-13T03:49:22.784Z,4.70
2018-02-13T03:51:52.910Z,4.70
2018-02-13T03:54:21.656Z,4.60
2018-02-13T03:56:50.487Z,4.70
2018-02-13T03:59:19.641Z,4.70
2018-02-13T04:01:48.737Z,4.80
2018-02-13T04:04:17.423Z,4.80
2018-02-13T04:09:16.228Z,4.80
2018-02-13T04:11:44.952Z,4.80
2018-02-13T04:14:13.703Z,4.90
2018-02-13T04:16:42.326Z,4.80
2018-02-13T04:19:11.076Z,4.80
2018-02-13T04:21:40.519Z,4.80
2018-02-13T04:24:10.701Z,4.70
2018-02-13T04:26:40.311Z,4.70
2018-02-13T04:29:09.097Z,4.80
2018-02-13T04:31:38.193Z,4.70
2018-02-13T04:34:06.879Z,4.70
2018-02-13T04:36:35.568Z,4.60
2018-02-13T04:39:04.467Z,4.60
2018-02-13T04:41:33.144Z,4.70
2018-02-13T04:44:01.937Z,4.70
2018-02-13T04:46:33.077Z,4.60
2018-02-13T04:49:02.273Z,4.60
2018-02-13T04:51:31.580Z,4.60
2018-02-13T04:54:01.181Z,4.60
2018-02-13T04:56:32.021Z,4.70
2018-02-13T04:59:01.525Z,4.70
2018-02-13T05:01:30.214Z,4.70
2018-02-13T05:03:58.898Z,4.70
2018-02-13T05:06:27.586Z,4.70
2018-02-13T05:08:56.269Z,4.60
2018-02-13T05:13:55.689Z,4.60
2018-02-13T05:16:26.012Z,4.70
2018-02-13T05:18:54.707Z,4.70
2018-02-13T05:21:23.805Z,4.70
2018-02-13T05:23:52.891Z,4.80
2018-02-13T05:26:22.397Z,4.70
2018-02-13T05:28:51.081Z,4.80
2018-02-13T05:31:19.767Z,4.70
2018-02-13T05:33:48.866Z,4.80
2018-02-13T05:36:17.964Z,4.80
2018-02-13T05:38:46.957Z,4.80
2018-02-13T05:41:16.770Z,4.80
2018-02-13T05:43:45.452Z,4.70
2018-02-13T05:46:14.391Z,4.80
2018-02-13T05:48:43.031Z,4.80
2018-02-13T05:51:11.714Z,4.80
2018-02-13T05:53:41.219Z,4.80
2018-02-13T05:56:10.017Z,4.90
2018-02-13T05:58:38.903Z,4.90
2018-02-13T06:01:07.690Z,5.00
2018-02-13T06:03:36.577Z,5.00
2018-02-13T06:06:05.673Z,5.00
2018-02-13T06:08:34.660Z,5.00
2018-02-13T06:11:03.434Z,5.00
2018-02-13T06:16:07.386Z,5.00
2018-02-13T06:18:36.069Z,5.00
2018-02-13T06:21:05.573Z,5.00
2018-02-13T06:23:34.668Z,4.90
2018-02-13T06:26:03.291Z,5.00
2018-02-13T06:28:32.042Z,5.10
2018-02-13T06:31:01.719Z,5.10
2018-02-13T06:33:30.438Z,5.20
2018-02-13T06:35:59.532Z,5.10
2018-02-13T06:38:28.733Z,5.10
2018-02-13T06:40:58.236Z,5.10
2018-02-13T06:43:27.743Z,5.20
2018-02-13T06:45:56.838Z,5.30
2018-02-13T06:48:26.375Z,5.30
2018-02-13T06:50:55.234Z,5.30
2018-02-13T06:53:23.920Z,7.40
2018-02-13T06:55:53.167Z,5.30
2018-02-13T06:58:22.727Z,5.30
2018-02-13T07:00:51.412Z,5.30
2018-02-13T07:03:20.510Z,5.30
2018-02-13T07:05:49.198Z,5.10
2018-02-13T07:08:17.830Z,5.00
2018-02-13T07:10:46.915Z,5.00
2018-02-13T07:13:16.077Z,5.10
2018-02-13T07:15:46.153Z,5.20
2018-02-13T07:20:45.214Z,5.20
2018-02-13T07:23:14.093Z,5.20
2018-02-13T07:25:42.781Z,5.30
2018-02-13T07:28:11.669Z,5.30
2018-02-13T07:30:41.175Z,5.30
2018-02-13T07:33:10.067Z,5.30
2018-02-13T07:35:38.755Z,5.40
2018-02-13T07:38:08.974Z,5.50
2018-02-13T07:40:38.479Z,5.60
2018-02-13T07:43:07.373Z,5.60
2018-02-13T07:45:36.672Z,5.70
2018-02-13T07:48:06.381Z,5.80
2018-02-13T07:50:36.302Z,5.90
2018-02-13T07:53:05.743Z,6.00
2018-02-13T07:55:35.450Z,6.10
2018-02-13T07:58:04.751Z,6.20
2018-02-13T08:00:35.342Z,6.40
2018-02-13T08:03:05.099Z,6.50
2018-02-13T08:05:34.909Z,6.50
2018-02-13T08:08:04.625Z,6.60
2018-02-13T08:10:35.410Z,6.60
2018-02-13T08:13:05.734Z,6.80
2018-02-13T08:15:35.653Z,6.90
2018-02-13T08:18:04.949Z,6.90
2018-02-13T08:20:35.070Z,6.80
2018-02-13T08:23:04.640Z,6.70
2018-02-13T08:33:10.094Z,6.60
2018-02-13T08:35:40.257Z,6.20
2018-02-13T08:38:09.244Z,6.10
2018-02-13T08:43:09.018Z,5.90
2018-02-13T08:45:38.626Z,5.80
2018-02-13T08:48:08.336Z,5.50
2018-02-13T08:50:37.076Z,5.60
2018-02-13T08:53:06.933Z,5.70
2018-02-13T08:55:36.444Z,5.90
2018-02-13T08:58:06.050Z,6.10
2018-02-13T09:00:35.449Z,6.10
2018-02-13T09:03:04.962Z,6.20
2018-02-13T09:05:35.519Z,6.30
2018-02-13T09:08:04.791Z,6.30
2018-02-13T09:10:33.884Z,6.50
2018-02-13T09:13:03.187Z,6.50
2018-02-13T09:15:32.953Z,6.60
2018-02-13T09:18:02.398Z,6.70
2018-02-13T09:20:31.512Z,6.60
2018-02-13T09:23:00.629Z,6.50
2018-02-13T09:25:30.814Z,6.70
2018-02-13T09:28:00.371Z,6.80
2018-02-13T09:30:29.825Z,6.80
2018-02-13T09:35:28.527Z,6.70
2018-02-13T09:37:58.211Z,6.70
2018-02-13T09:40:27.436Z,6.70
2018-02-13T09:42:56.954Z,6.90
2018-02-13T09:45:26.140Z,6.90
2018-02-13T09:47:55.233Z,6.80
2018-02-13T09:50:24.737Z,6.70
2018-02-13T09:52:53.836Z,6.70
2018-02-13T09:55:23.134Z,6.70
2018-02-13T09:57:52.027Z,6.60
2018-02-13T10:00:21.734Z,6.70
2018-02-13T10:05:20.544Z,6.70
2018-02-13T10:07:49.844Z,6.70
2018-02-13T10:10:19.512Z,6.60
2018-02-13T10:12:49.465Z,6.60
2018-02-13T10:15:18.275Z,6.60
2018-02-13T10:17:47.153Z,6.70
2018-02-13T10:20:17.050Z,6.80
2018-02-13T10:25:16.689Z,7.00
2018-02-13T10:27:46.396Z,7.10
2018-02-13T10:30:15.709Z,7.30
2018-02-13T10:32:44.965Z,7.20
2018-02-13T10:35:15.321Z,7.40
2018-02-13T10:37:44.632Z,7.60
2018-02-13T10:40:13.924Z,7.80
2018-02-13T10:45:40.786Z,8.10
2018-02-13T10:48:09.984Z,8.20
2018-02-13T10:50:38.813Z,8.50
2018-02-13T10:53:07.563Z,8.50
2018-02-13T10:55:37.580Z,8.50
2018-02-13T10:58:07.041Z,8.50
2018-02-13T11:03:20.849Z,8.60
2018-02-13T11:05:50.247Z,8.60
2018-02-13T11:08:20.063Z,8.70
2018-02-13T11:10:49.151Z,9.00
2018-02-13T11:13:18.656Z,8.90
2018-02-13T11:15:48.636Z,9.00
2018-02-13T11:18:17.879Z,9.30
2018-02-13T11:20:47.171Z,9.00
2018-02-13T11:23:16.267Z,8.80
2018-02-13T11:25:44.953Z,8.70
2018-02-13T11:28:13.994Z,8.50
2018-02-13T11:30:43.149Z,8.60
2018-02-13T11:33:11.936Z,8.70
2018-02-13T11:35:42.011Z,8.80
2018-02-13T11:38:11.046Z,8.70
2018-02-13T11:40:40.702Z,8.70
2018-02-13T11:43:10.057Z,8.80
2018-02-13T11:45:39.591Z,9.00
2018-02-13T11:48:09.071Z,9.10
2018-02-13T11:50:38.783Z,8.90
2018-02-13T11:53:07.672Z,9.00
2018-02-13T11:55:36.364Z,9.10
2018-02-13T11:58:05.862Z,9.10
2018-02-13T12:00:35.678Z,8.80
2018-02-13T12:03:05.384Z,8.90
2018-02-13T12:05:34.220Z,9.20
2018-02-13T12:08:03.779Z,9.00
2018-02-13T12:10:32.878Z,8.90
2018-02-13T12:13:01.973Z,9.00
2018-02-13T12:15:31.067Z,9.00
2018-02-13T12:18:01.391Z,9.10
2018-02-13T12:20:31.307Z,9.30
2018-02-13T12:23:01.222Z,9.30
2018-02-13T12:25:42.616Z,9.50
2018-02-13T12:28:11.810Z,9.60
2018-02-13T12:30:41.197Z,9.60
2018-02-13T12:33:10.818Z,9.60
2018-02-13T12:35:40.324Z,9.60
2018-02-13T12:38:09.175Z,9.90
2018-02-13T12:40:39.278Z,9.70
2018-02-13T12:43:09.085Z,10.00
2018-02-13T12:45:39.161Z,10.10
2018-02-13T12:48:08.872Z,9.90
2018-02-13T12:50:38.069Z,10.00
2018-02-13T12:53:07.168Z,10.00
2018-02-13T12:55:36.465Z,10.10
2018-02-13T12:58:05.972Z,10.00
2018-02-13T13:00:35.618Z,10.10
2018-02-13T13:03:05.598Z,10.00
2018-02-13T13:05:35.310Z,10.00
2018-02-13T13:08:04.402Z,10.30
2018-02-13T13:10:34.113Z,10.20
2018-02-13T13:13:03.822Z,10.20
2018-02-13T13:15:32.857Z,10.30
2018-02-13T13:18:02.011Z,10.20
2018-02-13T13:20:31.113Z,10.20
2018-02-13T13:23:00.009Z,10.10
2018-02-13T13:25:29.054Z,10.20
2018-02-13T13:27:58.191Z,10.30
2018-02-13T13:30:27.354Z,10.40
2018-02-13T13:32:57.001Z,10.50
2018-02-13T13:37:55.811Z,10.50
2018-02-13T13:40:24.692Z,10.40
2018-02-13T13:42:53.995Z,10.50
2018-02-13T13:45:23.708Z,10.60
2018-02-13T13:47:53.013Z,11.10
2018-02-13T13:50:22.101Z,11.30
2018-02-13T13:52:51.607Z,11.40
2018-02-13T13:55:22.134Z,11.90
2018-02-13T13:57:51.642Z,12.00
2018-02-13T14:00:21.149Z,11.90
2018-02-13T14:02:49.979Z,11.50
2018-02-13T14:05:19.092Z,11.40
2018-02-13T14:07:48.432Z,11.40
2018-02-13T14:10:17.937Z,11.50
2018-02-13T14:12:47.242Z,11.50
2018-02-13T14:15:17.154Z,11.50
2018-02-13T14:17:46.457Z,11.70
2018-02-13T14:20:15.980Z,11.60
2018-02-13T14:22:44.851Z,11.50
2018-02-13T14:25:14.497Z,11.50
2018-02-13T14:27:44.169Z,11.50
2018-02-13T14:30:14.027Z,11.60
2018-02-13T14:32:43.589Z,11.40
2018-02-13T14:35:13.406Z,11.40
2018-02-13T14:37:42.756Z,11.20
2018-02-13T14:40:11.490Z,11.20
2018-02-13T14:42:40.790Z,11.20
2018-02-13T14:45:11.122Z,11.00
2018-02-13T14:47:41.016Z,11.10
2018-02-13T14:50:11.050Z,11.10
2018-02-13T14:52:40.347Z,11.00
2018-02-13T14:55:09.245Z,10.90
2018-02-13T14:57:38.950Z,10.80
2018-02-13T15:00:08.304Z,10.80
2018-02-13T15:02:37.449Z,10.90
2018-02-13T15:05:06.340Z,10.70
2018-02-13T15:07:36.255Z,10.70
2018-02-13T15:10:05.865Z,10.70
2018-02-13T15:12:35.524Z,10.70
2018-02-13T15:15:23.039Z,10.70
2018-02-13T15:17:54.243Z,10.50
2018-02-13T15:20:23.747Z,10.60
2018-02-13T15:22:53.048Z,10.50
2018-02-13T15:25:22.360Z,10.50
2018-02-13T15:27:51.075Z,10.30
2018-02-13T15:30:20.746Z,10.30
2018-02-13T15:32:50.352Z,10.20
2018-02-13T15:35:19.041Z,10.20
2018-02-13T15:37:47.730Z,10.20
2018-02-13T15:40:17.378Z,9.90
2018-02-13T15:42:47.554Z,9.80
2018-02-13T15:45:17.059Z,9.80
2018-02-13T15:47:46.775Z,9.60
2018-02-13T15:50:15.865Z,9.60
2018-02-13T15:52:44.837Z,9.70
2018-02-13T15:55:14.055Z,9.60
2018-02-13T15:57:43.370Z,9.60
2018-02-13T16:00:12.867Z,9.70
2018-02-13T16:02:41.961Z,9.70
2018-02-13T16:05:11.576Z,9.50
2018-02-13T16:07:41.071Z,9.40
2018-02-13T16:10:10.578Z,9.40
2018-02-13T16:12:39.269Z,9.30
2018-02-13T16:15:08.973Z,9.20
2018-02-13T16:17:38.989Z,9.30
2018-02-13T16:20:08.802Z,9.50
2018-02-13T16:22:38.410Z,9.40
2018-02-13T16:25:08.119Z,9.20
2018-02-13T16:27:38.293Z,9.20
2018-02-13T16:30:07.646Z,9.10
2018-02-13T16:32:36.790Z,9.20
2018-02-13T16:35:06.453Z,9.20
2018-02-13T16:37:35.748Z,9.30
2018-02-13T16:40:05.152Z,9.30
2018-02-13T16:45:32.431Z,9.30
2018-02-13T16:48:01.930Z,9.30
2018-02-13T16:50:31.435Z,9.30
2018-02-13T16:53:00.533Z,9.10
2018-02-13T16:55:30.241Z,9.10
2018-02-13T16:58:00.676Z,9.20
2018-02-13T17:00:30.487Z,9.20
2018-02-13T17:02:59.580Z,9.20
2018-02-13T17:05:29.491Z,9.10
2018-02-13T17:07:58.998Z,9.00
2018-02-13T17:10:27.844Z,9.00
2018-02-13T17:12:57.192Z,8.90
2018-02-13T17:15:26.693Z,8.90
2018-02-13T17:17:56.410Z,8.90
2018-02-13T17:20:26.120Z,8.90
2018-02-13T17:22:56.078Z,8.90
2018-02-13T17:25:26.428Z,8.90
2018-02-13T17:27:55.659Z,8.80
2018-02-13T17:30:24.342Z,8.80
2018-02-13T17:32:54.254Z,8.80
2018-02-13T17:35:23.766Z,8.80
2018-02-13T17:37:53.269Z,8.70
2018-02-13T17:40:22.572Z,8.80
2018-02-13T17:42:52.074Z,8.80
2018-02-13T17:45:21.684Z,8.90
2018-02-13T17:47:51.187Z,8.80
2018-02-13T17:50:20.283Z,8.70
2018-02-13T17:52:49.993Z,8.70
2018-02-13T17:55:19.701Z,8.70
2018-02-13T17:57:48.393Z,8.60
2018-02-13T18:00:17.892Z,8.70
2018-02-13T18:02:46.988Z,8.70
2018-02-13T18:05:15.686Z,8.70
2018-02-13T18:07:46.207Z,8.70
2018-02-13T18:10:15.099Z,8.70
2018-02-13T18:12:44.398Z,8.70
2018-02-13T18:15:13.494Z,8.70
2018-02-13T18:17:42.799Z,8.70
2018-02-13T18:20:11.890Z,8.60
2018-02-13T18:22:41.603Z,8.60
2018-02-13T18:25:10.394Z,8.60
2018-02-13T18:27:40.307Z,8.50
2018-02-13T18:30:10.017Z,8.60
2018-02-13T18:32:39.522Z,8.60
2018-02-13T18:35:08.615Z,8.60
2018-02-13T18:37:37.707Z,8.50
2018-02-13T18:40:07.215Z,8.40
2018-02-13T18:42:36.772Z,8.50
2018-02-13T18:45:06.020Z,8.40
2018-02-13T18:47:35.320Z,8.50
2018-02-13T18:50:04.420Z,8.50
2018-02-13T18:55:05.472Z,8.40
2018-02-13T18:57:35.184Z,8.40
2018-02-13T19:00:05.162Z,8.40
2018-02-13T19:02:34.812Z,8.40
2018-02-13T19:05:04.484Z,8.40
2018-02-13T19:07:34.032Z,8.40
2018-02-13T19:10:08.650Z,8.40
2018-02-13T19:12:38.019Z,8.40
2018-02-13T19:15:06.845Z,8.50
2018-02-13T19:17:35.731Z,8.50
2018-02-13T19:20:05.441Z,8.40
2018-02-13T19:22:35.355Z,8.40
2018-02-13T19:25:05.066Z,8.40
2018-02-13T19:27:34.161Z,8.50
2018-02-13T19:30:03.770Z,8.50
2018-02-13T19:32:33.377Z,8.50
2018-02-13T19:35:02.680Z,8.50
2018-02-13T19:37:31.773Z,8.50
2018-02-13T19:40:01.895Z,8.50
2018-02-13T19:42:31.602Z,8.40
2018-02-13T19:45:01.108Z,8.60
2018-02-13T19:47:30.623Z,8.60
2018-02-13T19:49:59.914Z,8.80
2018-02-13T19:52:29.214Z,8.70
2018-02-13T19:54:58.463Z,8.70
2018-02-13T19:57:27.959Z,8.70
2018-02-13T19:59:57.323Z,8.80
2018-02-13T20:02:26.418Z,8.70
2018-02-13T20:04:55.929Z,8.80
2018-02-13T20:07:25.426Z,8.70
2018-02-13T20:09:54.529Z,8.70
2018-02-13T20:12:24.185Z,8.70
2018-02-13T20:14:53.683Z,8.60
2018-02-13T20:17:23.248Z,8.50
2018-02-13T20:19:52.601Z,8.60
2018-02-13T20:22:22.374Z,8.60
2018-02-13T20:24:51.760Z,8.60
2018-02-13T20:27:21.270Z,8.60
2018-02-13T20:29:50.515Z,8.60
2018-02-13T20:32:19.262Z,8.60
2018-02-13T20:37:18.677Z,8.60
2018-02-13T20:39:49.203Z,8.60
2018-02-13T20:42:18.991Z,8.60
2018-02-13T20:44:49.035Z,8.50
2018-02-13T20:49:48.463Z,8.50
2018-02-13T20:52:17.343Z,8.50
2018-02-13T20:54:46.028Z,8.40
2018-02-13T20:57:15.532Z,8.50
2018-02-13T21:02:15.978Z,8.50
2018-02-13T21:04:45.207Z,8.50
2018-02-13T21:07:14.809Z,8.50
2018-02-13T21:09:44.092Z,8.40
2018-02-13T21:12:13.745Z,8.40
2018-02-13T21:14:42.892Z,8.40
2018-02-13T21:17:22.638Z,8.40
2018-02-13T21:19:51.735Z,8.40
2018-02-13T21:22:21.241Z,8.40
2018-02-13T21:24:50.947Z,8.40
2018-02-13T21:27:19.847Z,8.30
2018-02-13T21:29:49.755Z,8.30
2018-02-13T21:32:18.652Z,8.30
2018-02-13T21:34:47.705Z,8.30
2018-02-13T21:37:17.062Z,8.20
2018-02-13T21:39:46.749Z,8.30
2018-02-13T21:42:15.644Z,8.20
2018-02-13T21:44:45.965Z,8.20
2018-02-13T21:47:14.899Z,8.20
2018-02-13T21:49:44.098Z,8.10
2018-02-13T21:52:13.260Z,8.20
2018-02-13T21:54:42.489Z,8.10
2018-02-13T21:57:12.232Z,8.10
2018-02-13T21:59:41.154Z,8.00
2018-02-13T22:02:09.840Z,8.10
2018-02-13T22:04:38.525Z,8.00
2018-02-13T22:07:08.053Z,8.10
2018-02-13T22:09:37.537Z,8.10
2018-02-13T22:12:07.182Z,8.10
2018-02-13T22:14:36.310Z,8.10
2018-02-13T22:17:06.444Z,8.10
2018-02-13T22:19:36.173Z,8.10
2018-02-13T22:22:05.270Z,8.10
2018-02-13T22:24:35.798Z,8.10
2018-02-13T22:27:04.485Z,8.10
2018-02-13T22:29:33.994Z,8.10
2018-02-13T22:32:03.089Z,8.10
2018-02-13T22:34:32.181Z,8.10
2018-02-13T22:37:01.077Z,8.10
2018-02-13T22:42:01.172Z,8.10
2018-02-13T22:44:31.235Z,8.10
2018-02-13T22:47:00.491Z,8.00
2018-02-13T22:49:30.449Z,8.00
2018-02-13T22:52:00.057Z,8.00
2018-02-13T22:54:29.610Z,8.00
2018-02-13T22:57:00.063Z,8.00
2018-02-13T22:59:29.838Z,8.00
2018-02-13T23:02:00.223Z,8.00
2018-02-13T23:07:00.114Z,8.00
2018-02-13T23:09:29.362Z,8.00
2018-02-13T23:11:59.266Z,7.90
2018-02-13T23:14:28.367Z,7.90
2018-02-13T23:16:57.868Z,7.80
2018-02-13T23:19:28.165Z,7.80
2018-02-13T23:21:58.109Z,7.80
2018-02-13T23:24:29.076Z,8.80
2018-02-13T23:26:59.581Z,7.80
2018-02-13T23:29:29.787Z,7.80
2018-02-13T23:31:59.922Z,7.80
2018-02-13T23:34:30.158Z,7.90
2018-02-13T23:36:59.139Z,7.90
2018-02-13T23:39:29.255Z,7.90
2018-02-13T23:41:58.554Z,7.90
2018-02-13T23:44:28.884Z,7.90
2018-02-13T23:46:57.768Z,7.90
2018-02-13T23:49:26.866Z,7.90
2018-02-13T23:51:56.382Z,7.90
2018-02-13T23:54:26.496Z,8.00
2018-02-13T23:56:56.298Z,7.90
2018-02-13T23:59:26.253Z,7.90
